createdAt,value
2022-11-02T00:00:36.634Z,11.68
2022-11-02T00:03:45.258Z,11.59
2022-11-02T00:06:53.592Z,11.50
2022-11-02T00:10:02.278Z,11.48
2022-11-02T00:13:10.638Z,11.41
2022-11-02T00:16:26.408Z,11.39
2022-11-02T00:19:40.625Z,11.35
2022-11-02T00:22:43.111Z,11.39
2022-11-02T00:26:02.224Z,11.40
2022-11-02T00:29:12.627Z,11.48
2022-11-02T00:32:21.262Z,11.46
2022-11-02T00:35:29.603Z,11.44
2022-11-02T00:38:38.305Z,11.48
2022-11-02T00:41:46.613Z,11.51
2022-11-02T00:44:55.242Z,11.51
2022-11-02T00:48:03.944Z,11.54
2022-11-02T00:51:12.194Z,11.57
2022-11-02T00:54:28.588Z,11.69
2022-11-02T00:57:40.417Z,11.70
2022-11-02T01:00:55.614Z,11.76
2022-11-02T01:04:04.557Z,11.74
2022-11-02T01:07:12.627Z,11.67
2022-11-02T01:10:28.643Z,11.69
2022-11-02T01:13:37.273Z,11.72
2022-11-02T01:20:06.633Z,11.66
2022-11-02T01:23:21.653Z,11.70
2022-11-02T01:26:36.647Z,11.75
2022-11-02T01:29:45.282Z,11.76
2022-11-02T01:33:00.719Z,11.75
2022-11-02T01:36:05.049Z,11.72
2022-11-02T01:39:20.672Z,11.68
2022-11-02T01:42:42.644Z,11.65
2022-11-02T01:46:04.694Z,11.67
2022-11-02T01:49:16.570Z,11.72
2022-11-02T01:52:30.686Z,11.69
2022-11-02T01:55:46.678Z,11.73
2022-11-02T01:58:54.638Z,11.80
2022-11-02T02:02:15.808Z,11.83
2022-11-02T02:05:24.865Z,11.76
2022-11-02T02:08:34.905Z,11.82
2022-11-02T02:11:45.335Z,11.84
2022-11-02T02:14:53.670Z,11.84
2022-11-02T02:18:12.173Z,11.83
2022-11-02T02:21:52.717Z,11.84
2022-11-02T02:25:25.675Z,11.81
2022-11-02T02:28:54.708Z,11.88
2022-11-02T02:32:22.682Z,11.90
2022-11-02T02:35:31.815Z,11.91
2022-11-02T02:38:54.696Z,11.93
2022-11-02T02:42:05.972Z,11.89
2022-11-02T02:45:40.656Z,11.95
2022-11-02T02:48:51.682Z,12.01
2022-11-02T02:52:01.512Z,12.01
2022-11-02T02:55:12.681Z,12.01
2022-11-02T02:58:25.984Z,12.03
2022-11-02T03:01:41.743Z,11.94
2022-11-02T03:04:50.248Z,11.95
2022-11-02T03:07:58.712Z,12.00
2022-11-02T03:11:16.948Z,11.98
2022-11-02T03:14:39.693Z,11.87
2022-11-02T03:18:13.818Z,11.85
2022-11-02T03:21:40.770Z,11.75
2022-11-02T03:24:59.371Z,11.72
2022-11-02T03:28:24.704Z,11.72
2022-11-02T03:31:41.799Z,11.63
2022-11-02T03:34:54.781Z,11.60
2022-11-02T03:38:12.219Z,11.60
2022-11-02T03:41:31.733Z,11.57
2022-11-02T03:44:47.718Z,11.64
2022-11-02T03:48:02.264Z,11.55
2022-11-02T03:51:15.814Z,11.57
2022-11-02T03:54:45.761Z,11.64
2022-11-02T03:57:50.753Z,11.70
2022-11-02T04:01:10.784Z,11.72
2022-11-02T04:04:19.754Z,11.75
2022-11-02T04:07:33.589Z,11.82
2022-11-02T04:10:49.777Z,11.77
2022-11-02T04:13:51.466Z,11.78
2022-11-02T04:17:05.746Z,11.86
2022-11-02T04:20:08.617Z,11.91
2022-11-02T04:23:24.697Z,11.90
2022-11-02T04:26:33.301Z,11.92
2022-11-02T04:29:41.742Z,11.91
2022-11-02T04:32:51.449Z,11.92
2022-11-02T04:35:59.739Z,11.90
2022-11-02T04:39:14.776Z,11.94
2022-11-02T04:42:29.740Z,11.96
2022-11-02T04:45:44.733Z,11.92
2022-11-02T04:48:46.785Z,11.90
2022-11-02T04:52:01.814Z,11.85
2022-11-02T04:55:10.858Z,11.90
2022-11-02T04:58:19.751Z,11.81
2022-11-02T05:01:29.913Z,11.84
2022-11-02T05:04:38.342Z,11.85
2022-11-02T05:07:46.775Z,11.86
2022-11-02T05:11:03.751Z,11.87
2022-11-02T05:14:12.749Z,12.02
2022-11-02T05:17:21.329Z,12.04
2022-11-02T05:20:35.787Z,12.01
2022-11-02T05:23:44.816Z,12.00
2022-11-02T05:26:59.791Z,12.03
2022-11-02T05:30:08.780Z,11.99
2022-11-02T05:33:17.488Z,12.02
2022-11-02T05:36:25.814Z,11.99
2022-11-02T05:39:34.433Z,11.98
2022-11-02T05:42:42.797Z,12.02
2022-11-02T05:46:01.161Z,12.04
2022-11-02T05:49:09.796Z,12.04
2022-11-02T05:52:24.801Z,12.13
2022-11-02T05:55:32.834Z,12.20
2022-11-02T05:58:41.558Z,12.21
2022-11-02T06:01:57.933Z,12.30
2022-11-02T06:05:00.101Z,12.33
2022-11-02T06:08:14.831Z,12.38
2022-11-02T06:11:17.508Z,12.47
2022-11-02T06:14:31.833Z,12.52
2022-11-02T06:17:44.805Z,12.57
2022-11-02T06:20:59.823Z,12.62
2022-11-02T06:24:07.836Z,12.70
2022-11-02T06:27:16.301Z,12.70
2022-11-02T06:30:24.815Z,12.71
2022-11-02T06:33:39.794Z,12.73
2022-11-02T06:36:47.825Z,12.71
2022-11-02T06:40:02.848Z,12.80
2022-11-02T06:43:16.118Z,12.68
2022-11-02T06:46:38.798Z,12.65
2022-11-02T06:49:40.565Z,12.64
2022-11-02T06:52:54.813Z,12.63
2022-11-02T06:56:03.661Z,12.72
2022-11-02T06:59:18.846Z,12.78
2022-11-02T07:02:27.422Z,12.80
2022-11-02T07:05:36.872Z,12.82
2022-11-02T07:08:45.414Z,12.78
2022-11-02T07:11:53.821Z,12.43
2022-11-02T07:15:02.538Z,12.47
2022-11-02T07:18:16.891Z,12.47
2022-11-02T07:24:38.814Z,12.43
2022-11-02T07:27:40.634Z,12.41
2022-11-02T07:30:55.832Z,12.49
2022-11-02T07:34:16.500Z,12.58
2022-11-02T07:37:18.874Z,12.53
2022-11-02T07:40:35.872Z,12.39
2022-11-02T07:43:44.285Z,12.52
2022-11-02T07:46:52.502Z,12.86
2022-11-02T07:50:00.843Z,13.11
2022-11-02T07:53:09.979Z,13.07
2022-11-02T07:56:24.824Z,13.11
2022-11-02T07:59:39.880Z,13.12
2022-11-02T08:02:48.038Z,12.96
2022-11-02T08:05:56.411Z,13.02
2022-11-02T08:09:10.874Z,13.03
2022-11-02T08:12:19.385Z,12.99
2022-11-02T08:15:27.861Z,13.18
2022-11-02T08:18:42.882Z,13.26
2022-11-02T08:21:51.938Z,13.27
2022-11-02T08:25:02.119Z,13.24
2022-11-02T08:28:17.231Z,13.14
2022-11-02T08:31:25.931Z,13.14
2022-11-02T08:34:34.478Z,13.18
2022-11-02T08:37:43.030Z,13.12
2022-11-02T08:40:52.533Z,13.31
2022-11-02T08:44:01.900Z,13.55
2022-11-02T08:47:22.340Z,13.71
2022-11-02T08:50:35.087Z,13.80
2022-11-02T08:53:48.620Z,13.74
2022-11-02T08:56:58.885Z,13.70
2022-11-02T09:00:08.376Z,13.65
2022-11-02T09:03:25.044Z,13.53
2022-11-02T09:06:40.883Z,13.37
2022-11-02T09:09:48.938Z,13.29
2022-11-02T09:13:06.232Z,13.33
2022-11-02T09:16:08.535Z,13.56
2022-11-02T09:19:22.896Z,13.82
2022-11-02T09:22:25.323Z,14.17
2022-11-02T09:25:39.926Z,14.20
2022-11-02T09:28:54.904Z,14.24
2022-11-02T09:32:03.575Z,14.34
2022-11-02T09:35:15.926Z,14.50
2022-11-02T09:38:24.576Z,14.66
2022-11-02T09:41:42.892Z,14.62
2022-11-02T09:45:03.232Z,14.62
2022-11-02T09:48:28.322Z,14.73
2022-11-02T09:51:48.947Z,14.79
2022-11-02T09:55:01.041Z,14.82
2022-11-02T09:58:23.942Z,14.82
2022-11-02T10:01:47.694Z,14.75
2022-11-02T10:05:29.968Z,14.62
2022-11-02T10:08:53.974Z,14.76
2022-11-02T10:12:13.296Z,14.90
2022-11-02T10:15:47.946Z,14.80
2022-11-02T10:18:59.979Z,14.88
2022-11-02T10:22:19.943Z,15.09
2022-11-02T10:25:36.241Z,15.34
2022-11-02T10:28:41.756Z,15.53
2022-11-02T10:31:56.954Z,15.65
2022-11-02T10:35:17.482Z,15.71
2022-11-02T10:38:53.956Z,15.72
2022-11-02T10:42:22.170Z,15.41
2022-11-02T10:45:55.935Z,15.23
2022-11-02T10:49:33.985Z,15.41
2022-11-02T10:52:45.538Z,15.44
2022-11-02T10:56:09.952Z,15.57
2022-11-02T10:59:20.986Z,15.69
2022-11-02T11:02:28.967Z,15.80
2022-11-02T11:06:07.059Z,16.01
2022-11-02T11:09:26.029Z,16.05
2022-11-02T11:12:45.970Z,16.33
2022-11-02T11:15:54.590Z,16.81
2022-11-02T11:22:39.842Z,17.27
2022-11-02T11:26:05.991Z,17.51
2022-11-02T11:29:28.969Z,18.38
2022-11-02T11:32:44.019Z,19.05
2022-11-02T11:35:56.975Z,19.28
2022-11-02T11:39:35.004Z,19.36
2022-11-02T11:42:44.000Z,18.72
2022-11-02T11:46:06.809Z,18.62
2022-11-02T11:53:16.488Z,18.72
2022-11-02T11:56:33.013Z,19.32
2022-11-02T11:59:53.979Z,19.44
2022-11-02T12:03:11.292Z,20.50
2022-11-02T12:06:35.723Z,21.09
2022-11-02T12:10:11.058Z,19.24
2022-11-02T12:13:36.081Z,18.35
2022-11-02T12:17:11.642Z,17.89
2022-11-02T12:20:39.010Z,18.06
2022-11-02T12:24:19.999Z,17.98
2022-11-02T12:27:45.153Z,18.20
2022-11-02T12:31:07.957Z,18.27
2022-11-02T12:34:52.923Z,17.99
2022-11-02T12:38:19.111Z,17.85
2022-11-02T12:42:00.014Z,17.82
2022-11-02T12:45:34.775Z,17.84
2022-11-02T12:49:04.114Z,17.82
2022-11-02T12:52:32.649Z,17.95
2022-11-02T12:55:52.037Z,18.22
2022-11-02T12:58:54.982Z,18.38
2022-11-02T13:02:20.170Z,18.51
2022-11-02T13:05:26.898Z,18.42
2022-11-02T13:08:56.031Z,18.28
2022-11-02T13:12:19.078Z,18.11
2022-11-02T13:15:25.286Z,18.06
2022-11-02T13:18:53.056Z,18.00
2022-11-02T13:22:04.066Z,17.82
2022-11-02T13:25:20.963Z,17.72
2022-11-02T13:28:49.044Z,17.64
2022-11-02T13:32:09.204Z,17.54
2022-11-02T13:35:34.045Z,17.47
2022-11-02T13:38:56.054Z,17.44
2022-11-02T13:42:25.088Z,17.43
2022-11-02T13:45:54.359Z,17.34
2022-11-02T13:49:19.055Z,17.26
2022-11-02T13:52:48.075Z,17.18
2022-11-02T13:55:55.739Z,17.16
2022-11-02T13:59:14.110Z,17.09
2022-11-02T14:02:23.700Z,17.06
2022-11-02T14:05:38.314Z,17.05
2022-11-02T14:08:59.029Z,16.99
2022-11-02T14:12:20.114Z,16.96
2022-11-02T14:15:48.089Z,16.89
2022-11-02T14:19:21.075Z,16.91
2022-11-02T14:22:36.061Z,17.00
2022-11-02T14:25:49.273Z,17.07
2022-11-02T14:29:01.034Z,17.00
2022-11-02T14:32:44.246Z,16.93
2022-11-02T14:35:57.521Z,17.02
2022-11-02T14:39:29.082Z,17.04
2022-11-02T14:42:59.122Z,17.06
2022-11-02T14:46:38.271Z,17.03
2022-11-02T14:49:55.076Z,16.98
2022-11-02T14:53:08.189Z,16.94
2022-11-02T14:56:17.114Z,16.97
2022-11-02T14:59:40.109Z,16.94
2022-11-02T15:02:49.159Z,16.88
2022-11-02T15:06:16.848Z,16.81
2022-11-02T15:09:55.154Z,16.81
2022-11-02T15:13:31.137Z,16.72
2022-11-02T15:16:40.576Z,16.72
2022-11-02T15:19:52.127Z,16.68
2022-11-02T15:23:24.889Z,16.65
2022-11-02T15:26:53.120Z,16.61
2022-11-02T15:30:03.321Z,16.61
2022-11-02T15:33:13.143Z,16.61
2022-11-02T15:36:46.118Z,16.60
2022-11-02T15:39:50.068Z,16.55
2022-11-02T15:43:30.179Z,16.51
2022-11-02T15:46:54.775Z,16.47
2022-11-02T15:50:39.136Z,16.43
2022-11-02T15:54:13.568Z,16.45
2022-11-02T15:57:51.184Z,16.44
2022-11-02T16:01:05.345Z,16.39
2022-11-02T16:04:28.191Z,16.31
2022-11-02T16:07:57.260Z,16.24
2022-11-02T16:11:25.109Z,16.17
2022-11-02T16:14:40.139Z,16.11
2022-11-02T16:17:42.113Z,16.10
2022-11-02T16:21:00.129Z,16.05
2022-11-02T16:24:08.183Z,16.03
2022-11-02T16:27:23.184Z,15.99
2022-11-02T16:30:32.150Z,15.96
2022-11-02T16:33:44.210Z,15.89
2022-11-02T16:36:53.172Z,15.88
2022-11-02T16:40:08.185Z,15.89
2022-11-02T16:43:14.001Z,15.90
2022-11-02T16:46:46.146Z,15.84
2022-11-02T16:50:05.194Z,15.81
2022-11-02T16:53:34.204Z,15.74
2022-11-02T16:56:36.290Z,15.65
2022-11-02T17:00:02.200Z,15.59
2022-11-02T17:03:16.129Z,15.57
2022-11-02T17:06:25.649Z,15.48
2022-11-02T17:09:38.238Z,15.42
2022-11-02T17:12:48.715Z,15.37
2022-11-02T17:15:59.170Z,15.32
2022-11-02T17:19:37.939Z,15.24
2022-11-02T17:23:06.146Z,15.15
2022-11-02T17:26:33.940Z,15.10
2022-11-02T17:29:46.158Z,15.08
2022-11-02T17:33:02.179Z,15.00
2022-11-02T17:36:14.169Z,14.92
2022-11-02T17:39:29.170Z,15.00
2022-11-02T17:42:38.264Z,14.99
2022-11-02T17:46:01.188Z,14.99
2022-11-02T17:49:03.161Z,14.98
2022-11-02T17:52:21.250Z,14.93
2022-11-02T17:55:33.357Z,14.87
2022-11-02T17:58:48.222Z,14.85
2022-11-02T18:01:57.290Z,14.80
2022-11-02T18:05:26.208Z,14.82
2022-11-02T18:08:36.003Z,14.88
2022-11-02T18:11:44.215Z,14.88
2022-11-02T18:14:53.246Z,14.83
2022-11-02T18:18:08.468Z,14.83
2022-11-02T18:21:18.052Z,14.80
2022-11-02T18:24:26.190Z,14.78
2022-11-02T18:27:44.218Z,14.79
2022-11-02T18:30:46.271Z,14.73
2022-11-02T18:34:01.201Z,14.76
2022-11-02T18:37:03.304Z,14.78
2022-11-02T18:40:24.279Z,14.75
2022-11-02T18:43:26.440Z,14.79
2022-11-02T18:46:42.357Z,14.80
2022-11-02T18:49:57.299Z,14.86
2022-11-02T18:53:06.421Z,14.84
2022-11-02T18:56:16.241Z,14.83
2022-11-02T18:59:25.657Z,14.88
2022-11-02T19:02:36.309Z,14.85
2022-11-02T19:05:47.784Z,14.82
2022-11-02T19:08:56.255Z,14.74
2022-11-02T19:12:09.184Z,14.74
2022-11-02T19:15:18.246Z,14.72
2022-11-02T19:18:34.254Z,14.68
2022-11-02T19:21:44.573Z,14.67
2022-11-02T19:24:53.562Z,14.69
2022-11-02T19:28:02.679Z,14.75
2022-11-02T19:31:17.273Z,14.69
2022-11-02T19:34:26.267Z,14.63
2022-11-02T19:37:41.382Z,14.51
2022-11-02T19:40:50.222Z,14.46
2022-11-02T19:44:06.276Z,14.48
2022-11-02T19:47:28.273Z,14.48
2022-11-02T19:50:43.258Z,14.49
2022-11-02T19:53:48.409Z,14.46
2022-11-02T19:57:04.285Z,14.45
2022-11-02T20:00:07.173Z,14.42
2022-11-02T20:03:23.304Z,14.38
2022-11-02T20:06:35.391Z,14.38
2022-11-02T20:09:44.245Z,14.38
2022-11-02T20:12:53.118Z,14.38
2022-11-02T20:16:03.392Z,14.37
2022-11-02T20:19:12.424Z,14.29
2022-11-02T20:22:21.311Z,14.28
2022-11-02T20:25:37.242Z,14.23
2022-11-02T20:28:43.029Z,14.18
2022-11-02T20:31:57.293Z,14.14
2022-11-02T20:35:11.012Z,14.11
2022-11-02T20:38:28.251Z,14.11
2022-11-02T20:41:44.294Z,14.07
2022-11-02T20:44:46.277Z,14.04
2022-11-02T20:48:08.668Z,14.02
2022-11-02T20:51:12.773Z,14.06
2022-11-02T20:54:28.336Z,13.99
2022-11-02T20:57:30.263Z,13.99
2022-11-02T21:00:46.401Z,14.00
2022-11-02T21:03:55.275Z,13.92
2022-11-02T21:07:04.135Z,13.92
2022-11-02T21:10:13.303Z,13.92
2022-11-02T21:13:22.054Z,13.93
2022-11-02T21:16:30.289Z,13.92
2022-11-02T21:19:45.306Z,13.89
2022-11-02T21:22:49.722Z,13.78
2022-11-02T21:26:06.388Z,13.74
2022-11-02T21:29:21.346Z,13.72
2022-11-02T21:32:23.207Z,13.71
2022-11-02T21:35:38.333Z,13.71
2022-11-02T21:38:47.316Z,13.69
2022-11-02T21:41:55.883Z,13.74
2022-11-02T21:45:04.318Z,13.76
2022-11-02T21:48:27.363Z,13.68
2022-11-02T21:51:35.552Z,13.61
2022-11-02T21:54:43.803Z,13.57
2022-11-02T21:57:52.389Z,13.55
2022-11-02T22:01:11.465Z,13.56
2022-11-02T22:04:30.330Z,13.56
2022-11-02T22:07:38.973Z,13.57
2022-11-02T22:10:47.338Z,13.56
2022-11-02T22:13:58.171Z,13.56
2022-11-02T22:17:43.425Z,13.48
2022-11-02T22:20:36.090Z,13.51
2022-11-02T22:23:52.349Z,13.52
2022-11-02T22:26:54.351Z,13.47
2022-11-02T22:30:09.363Z,13.52
2022-11-02T22:33:11.070Z,13.46
2022-11-02T22:36:27.337Z,13.45
2022-11-02T22:39:36.354Z,13.47
2022-11-02T22:42:51.336Z,13.52
2022-11-02T22:46:01.841Z,13.54
2022-11-02T22:49:25.313Z,13.58
2022-11-02T22:52:27.064Z,13.62
2022-11-02T22:55:41.328Z,13.70
2022-11-02T22:58:48.068Z,13.69
2022-11-02T23:02:02.505Z,13.77
2022-11-02T23:05:04.582Z,13.81
2022-11-02T23:08:20.418Z,13.88
2022-11-02T23:11:25.221Z,13.95
2022-11-02T23:14:40.342Z,13.92
2022-11-02T23:17:42.150Z,13.93
2022-11-02T23:20:58.417Z,13.88
2022-11-02T23:24:00.344Z,13.85
2022-11-02T23:27:15.337Z,13.86
2022-11-02T23:30:24.366Z,13.81
2022-11-02T23:33:35.004Z,13.73
2022-11-02T23:36:43.384Z,13.67
2022-11-02T23:39:51.925Z,13.57
2022-11-02T23:43:01.385Z,13.58
2022-11-02T23:46:23.365Z,13.51
2022-11-02T23:49:38.394Z,13.44
2022-11-02T23:52:48.314Z,13.43
2022-11-02T23:55:58.418Z,13.43
2022-11-02T23:59:13.389Z,13.45
